sensor_id;sensor_type;location;lat;lon;timestamp;temperature;humidity
11617;DHT22;5864;52.998;9.068;2023-04-29T00:00:35;10.80;99.90
11617;DHT22;5864;52.998;9.068;2023-04-29T00:03:21;10.80;99.90
11617;DHT22;5864;52.998;9.068;2023-04-29T00:06:07;10.70;99.90
11617;DHT22;5864;52.998;9.068;2023-04-29T00:08:52;10.70;99.90
11617;DHT22;5864;52.998;9.068;2023-04-29T00:11:39;10.70;99.90
11617;DHT22;5864;52.998;9.068;2023-04-29T00:14:25;10.80;99.90
11617;DHT22;5864;52.998;9.068;2023-04-29T00:17:11;10.80;99.90
11617;DHT22;5864;52.998;9.068;2023-04-29T00:19:56;10.80;99.90
11617;DHT22;5864;52.998;9.068;2023-04-29T00:22:42;11.70;99.90
11617;DHT22;5864;52.998;9.068;2023-04-29T00:25:28;10.70;99.90
11617;DHT22;5864;52.998;9.068;2023-04-29T00:28:15;10.70;99.90
11617;DHT22;5864;52.998;9.068;2023-04-29T00:31:00;10.70;99.90
11617;DHT22;5864;52.998;9.068;2023-04-29T00:33:46;10.70;99.90
11617;DHT22;5864;52.998;9.068;2023-04-29T00:36:32;10.80;99.90
11617;DHT22;5864;52.998;9.068;2023-04-29T00:39:17;10.70;99.90
11617;DHT22;5864;52.998;9.068;2023-04-29T00:42:03;10.70;99.90
11617;DHT22;5864;52.998;9.068;2023-04-29T00:44:50;10.70;99.90
11617;DHT22;5864;52.998;9.068;2023-04-29T00:47:36;10.70;99.90
11617;DHT22;5864;52.998;9.068;2023-04-29T00:50:21;10.60;99.90
11617;DHT22;5864;52.998;9.068;2023-04-29T00:53:07;10.60;99.90
11617;DHT22;5864;52.998;9.068;2023-04-29T00:55:52;10.60;99.90
11617;DHT22;5864;52.998;9.068;2023-04-29T00:58:38;10.70;99.90
11617;DHT22;5864;52.998;9.068;2023-04-29T01:01:26;10.70;99.90
11617;DHT22;5864;52.998;9.068;2023-04-29T01:04:12;10.70;99.90
11617;DHT22;5864;52.998;9.068;2023-04-29T01:07:03;10.60;99.90
11617;DHT22;5864;52.998;9.068;2023-04-29T01:09:57;10.50;99.90
11617;DHT22;5864;52.998;9.068;2023-04-29T01:12:49;10.40;99.90
11617;DHT22;5864;52.998;9.068;2023-04-29T01:15:44;10.50;99.90
11617;DHT22;5864;52.998;9.068;2023-04-29T01:18:36;10.50;99.90
11617;DHT22;5864;52.998;9.068;2023-04-29T01:21:24;10.40;99.90
11617;DHT22;5864;52.998;9.068;2023-04-29T01:24:11;10.40;99.90
11617;DHT22;5864;52.998;9.068;2023-04-29T01:27:01;10.40;99.90
11617;DHT22;5864;52.998;9.068;2023-04-29T01:29:55;10.40;99.90
11617;DHT22;5864;52.998;9.068;2023-04-29T01:32:51;10.20;99.90
11617;DHT22;5864;52.998;9.068;2023-04-29T01:35:44;12.40;99.90
11617;DHT22;5864;52.998;9.068;2023-04-29T01:38:40;10.20;99.90
11617;DHT22;5864;52.998;9.068;2023-04-29T01:41:35;10.20;99.90
11617;DHT22;5864;52.998;9.068;2023-04-29T01:44:23;10.20;99.90
11617;DHT22;5864;52.998;9.068;2023-04-29T01:47:13;10.70;99.90
11617;DHT22;5864;52.998;9.068;2023-04-29T01:49:59;10.20;99.90
11617;DHT22;5864;52.998;9.068;2023-04-29T01:52:45;10.10;99.90
11617;DHT22;5864;52.998;9.068;2023-04-29T01:55:32;11.40;99.90
11617;DHT22;5864;52.998;9.068;2023-04-29T01:58:18;10.10;99.90
11617;DHT22;5864;52.998;9.068;2023-04-29T02:01:04;10.00;99.90
11617;DHT22;5864;52.998;9.068;2023-04-29T02:03:50;10.00;99.90
11617;DHT22;5864;52.998;9.068;2023-04-29T02:06:36;10.30;99.90
11617;DHT22;5864;52.998;9.068;2023-04-29T02:09:22;11.10;99.90
11617;DHT22;5864;52.998;9.068;2023-04-29T02:12:07;10.00;99.90
11617;DHT22;5864;52.998;9.068;2023-04-29T02:14:54;10.00;99.90
11617;DHT22;5864;52.998;9.068;2023-04-29T02:17:40;9.90;99.90
11617;DHT22;5864;52.998;9.068;2023-04-29T02:20:25;10.00;99.90
11617;DHT22;5864;52.998;9.068;2023-04-29T02:23:11;10.00;99.90
11617;DHT22;5864;52.998;9.068;2023-04-29T02:25:57;10.60;99.90
11617;DHT22;5864;52.998;9.068;2023-04-29T02:28:43;9.90;99.90
11617;DHT22;5864;52.998;9.068;2023-04-29T02:31:31;9.90;99.90
11617;DHT22;5864;52.998;9.068;2023-04-29T02:34:16;10.00;99.90
11617;DHT22;5864;52.998;9.068;2023-04-29T02:37:02;9.90;99.90
11617;DHT22;5864;52.998;9.068;2023-04-29T02:39:48;9.80;99.90
11617;DHT22;5864;52.998;9.068;2023-04-29T02:42:33;11.10;99.90
11617;DHT22;5864;52.998;9.068;2023-04-29T02:45:18;10.20;99.90
11617;DHT22;5864;52.998;9.068;2023-04-29T02:48:06;9.70;99.90
11617;DHT22;5864;52.998;9.068;2023-04-29T02:50:52;9.70;99.90
11617;DHT22;5864;52.998;9.068;2023-04-29T02:53:37;9.70;99.90
11617;DHT22;5864;52.998;9.068;2023-04-29T02:56:23;9.60;99.90
11617;DHT22;5864;52.998;9.068;2023-04-29T02:59:09;9.60;99.90
11617;DHT22;5864;52.998;9.068;2023-04-29T03:01:54;9.70;99.90
11617;DHT22;5864;52.998;9.068;2023-04-29T03:04:41;9.70;99.90
11617;DHT22;5864;52.998;9.068;2023-04-29T03:07:28;9.70;99.90
11617;DHT22;5864;52.998;9.068;2023-04-29T03:10:13;9.70;99.90
11617;DHT22;5864;52.998;9.068;2023-04-29T03:12:59;10.30;99.90
11617;DHT22;5864;52.998;9.068;2023-04-29T03:15:45;9.70;99.90
11617;DHT22;5864;52.998;9.068;2023-04-29T03:18:30;9.80;99.90
11617;DHT22;5864;52.998;9.068;2023-04-29T03:21:17;9.80;99.90
11617;DHT22;5864;52.998;9.068;2023-04-29T03:24:03;9.70;99.90
11617;DHT22;5864;52.998;9.068;2023-04-29T03:26:49;9.60;99.90
11617;DHT22;5864;52.998;9.068;2023-04-29T03:29:34;9.60;99.90
11617;DHT22;5864;52.998;9.068;2023-04-29T03:32:20;9.60;99.90
11617;DHT22;5864;52.998;9.068;2023-04-29T03:35:06;9.60;99.90
11617;DHT22;5864;52.998;9.068;2023-04-29T03:37:53;9.50;99.90
11617;DHT22;5864;52.998;9.068;2023-04-29T03:40:40;9.50;99.90
11617;DHT22;5864;52.998;9.068;2023-04-29T03:43:25;9.50;99.90
11617;DHT22;5864;52.998;9.068;2023-04-29T03:46:11;9.60;99.90
11617;DHT22;5864;52.998;9.068;2023-04-29T03:48:57;9.60;99.90
11617;DHT22;5864;52.998;9.068;2023-04-29T03:51:42;9.50;99.90
11617;DHT22;5864;52.998;9.068;2023-04-29T03:54:30;9.50;99.90
11617;DHT22;5864;52.998;9.068;2023-04-29T03:57:16;9.50;99.90
11617;DHT22;5864;52.998;9.068;2023-04-29T04:00:02;9.60;99.90
11617;DHT22;5864;52.998;9.068;2023-04-29T04:02:48;9.50;99.90
11617;DHT22;5864;52.998;9.068;2023-04-29T04:05:33;9.40;99.90
11617;DHT22;5864;52.998;9.068;2023-04-29T04:08:19;9.50;99.90
11617;DHT22;5864;52.998;9.068;2023-04-29T04:11:06;9.50;99.90
11617;DHT22;5864;52.998;9.068;2023-04-29T04:13:52;9.40;99.90
11617;DHT22;5864;52.998;9.068;2023-04-29T04:16:38;9.50;99.90
11617;DHT22;5864;52.998;9.068;2023-04-29T04:19:24;10.10;99.90
11617;DHT22;5864;52.998;9.068;2023-04-29T04:22:10;9.90;99.90
11617;DHT22;5864;52.998;9.068;2023-04-29T04:24:56;9.40;99.90
11617;DHT22;5864;52.998;9.068;2023-04-29T04:27:43;9.40;99.90
11617;DHT22;5864;52.998;9.068;2023-04-29T04:30:30;10.90;99.90
11617;DHT22;5864;52.998;9.068;2023-04-29T04:33:15;11.20;99.90
11617;DHT22;5864;52.998;9.068;2023-04-29T04:36:01;9.30;99.90
11617;DHT22;5864;52.998;9.068;2023-04-29T04:38:46;9.60;99.90
11617;DHT22;5864;52.998;9.068;2023-04-29T04:41:32;11.20;99.90
11617;DHT22;5864;52.998;9.068;2023-04-29T04:44:19;9.40;99.90
11617;DHT22;5864;52.998;9.068;2023-04-29T04:47:04;9.40;99.90
11617;DHT22;5864;52.998;9.068;2023-04-29T04:49:50;9.50;99.90
11617;DHT22;5864;52.998;9.068;2023-04-29T04:52:37;10.00;99.90
11617;DHT22;5864;52.998;9.068;2023-04-29T04:55:22;9.40;99.90
11617;DHT22;5864;52.998;9.068;2023-04-29T04:58:08;9.60;99.90
11617;DHT22;5864;52.998;9.068;2023-04-29T05:00:55;9.60;99.90
11617;DHT22;5864;52.998;9.068;2023-04-29T05:03:40;9.70;99.90
11617;DHT22;5864;52.998;9.068;2023-04-29T05:06:26;9.70;99.90
11617;DHT22;5864;52.998;9.068;2023-04-29T05:09:12;9.70;99.90
11617;DHT22;5864;52.998;9.068;2023-04-29T05:11:57;9.70;99.90
11617;DHT22;5864;52.998;9.068;2023-04-29T05:14:43;9.80;99.90
11617;DHT22;5864;52.998;9.068;2023-04-29T05:17:30;9.70;99.90
11617;DHT22;5864;52.998;9.068;2023-04-29T05:20:17;9.70;99.90
11617;DHT22;5864;52.998;9.068;2023-04-29T05:23:03;9.70;99.90
11617;DHT22;5864;52.998;9.068;2023-04-29T05:25:49;9.80;99.90
11617;DHT22;5864;52.998;9.068;2023-04-29T05:28:35;9.60;99.90
11617;DHT22;5864;52.998;9.068;2023-04-29T05:31:20;9.90;99.90
11617;DHT22;5864;52.998;9.068;2023-04-29T05:34:07;9.70;99.90
11617;DHT22;5864;52.998;9.068;2023-04-29T05:36:53;9.70;99.90
11617;DHT22;5864;52.998;9.068;2023-04-29T05:39:40;10.50;99.90
11617;DHT22;5864;52.998;9.068;2023-04-29T05:42:26;9.50;99.90
11617;DHT22;5864;52.998;9.068;2023-04-29T05:45:11;9.60;99.90
11617;DHT22;5864;52.998;9.068;2023-04-29T05:47:57;9.60;99.90
11617;DHT22;5864;52.998;9.068;2023-04-29T05:50:44;9.60;99.90
11617;DHT22;5864;52.998;9.068;2023-04-29T05:53:31;9.60;99.90
11617;DHT22;5864;52.998;9.068;2023-04-29T05:56:18;9.70;99.90
11617;DHT22;5864;52.998;9.068;2023-04-29T05:59:03;9.80;99.90
11617;DHT22;5864;52.998;9.068;2023-04-29T06:01:50;9.80;99.90
11617;DHT22;5864;52.998;9.068;2023-04-29T06:04:35;9.70;99.90
11617;DHT22;5864;52.998;9.068;2023-04-29T06:07:23;10.20;99.90
11617;DHT22;5864;52.998;9.068;2023-04-29T06:10:09;9.90;99.90
11617;DHT22;5864;52.998;9.068;2023-04-29T06:12:55;10.00;99.90
11617;DHT22;5864;52.998;9.068;2023-04-29T06:15:40;10.20;99.90
11617;DHT22;5864;52.998;9.068;2023-04-29T06:18:26;10.30;99.90
11617;DHT22;5864;52.998;9.068;2023-04-29T06:21:11;11.30;99.90
11617;DHT22;5864;52.998;9.068;2023-04-29T06:23:58;10.40;99.90
11617;DHT22;5864;52.998;9.068;2023-04-29T06:26:44;10.60;99.90
11617;DHT22;5864;52.998;9.068;2023-04-29T06:29:29;10.70;99.90
11617;DHT22;5864;52.998;9.068;2023-04-29T06:32:15;10.80;99.90
11617;DHT22;5864;52.998;9.068;2023-04-29T06:35:01;10.90;99.90
11617;DHT22;5864;52.998;9.068;2023-04-29T06:37:47;11.10;99.90
11617;DHT22;5864;52.998;9.068;2023-04-29T06:40:34;11.20;99.90
11617;DHT22;5864;52.998;9.068;2023-04-29T06:43:20;11.50;99.90
11617;DHT22;5864;52.998;9.068;2023-04-29T06:46:05;11.90;99.90
11617;DHT22;5864;52.998;9.068;2023-04-29T06:48:51;13.00;99.90
11617;DHT22;5864;52.998;9.068;2023-04-29T06:51:37;12.30;99.90
11617;DHT22;5864;52.998;9.068;2023-04-29T06:54:22;12.20;99.90
11617;DHT22;5864;52.998;9.068;2023-04-29T06:57:09;12.10;99.90
11617;DHT22;5864;52.998;9.068;2023-04-29T06:59:55;12.00;99.90
11617;DHT22;5864;52.998;9.068;2023-04-29T07:02:41;11.80;99.90
11617;DHT22;5864;52.998;9.068;2023-04-29T07:05:27;11.70;99.90
11617;DHT22;5864;52.998;9.068;2023-04-29T07:08:13;11.60;99.90
11617;DHT22;5864;52.998;9.068;2023-04-29T07:10:59;11.30;99.90
11617;DHT22;5864;52.998;9.068;2023-04-29T07:13:46;11.40;99.90
11617;DHT22;5864;52.998;9.068;2023-04-29T07:16:31;11.50;99.90
11617;DHT22;5864;52.998;9.068;2023-04-29T07:19:17;11.70;99.90
11617;DHT22;5864;52.998;9.068;2023-04-29T07:22:02;11.90;99.90
11617;DHT22;5864;52.998;9.068;2023-04-29T07:24:52;12.10;99.90
11617;DHT22;5864;52.998;9.068;2023-04-29T07:27:37;12.30;99.90
11617;DHT22;5864;52.998;9.068;2023-04-29T07:30:24;13.70;99.90
11617;DHT22;5864;52.998;9.068;2023-04-29T07:33:09;12.30;99.90
11617;DHT22;5864;52.998;9.068;2023-04-29T07:35:55;12.10;99.90
11617;DHT22;5864;52.998;9.068;2023-04-29T07:38:41;12.10;99.90
11617;DHT22;5864;52.998;9.068;2023-04-29T07:41:27;11.90;99.90
11617;DHT22;5864;52.998;9.068;2023-04-29T07:44:12;11.90;99.90
11617;DHT22;5864;52.998;9.068;2023-04-29T07:47:00;11.70;99.90
11617;DHT22;5864;52.998;9.068;2023-04-29T07:49:45;11.60;99.90
11617;DHT22;5864;52.998;9.068;2023-04-29T07:52:32;11.60;99.90
11617;DHT22;5864;52.998;9.068;2023-04-29T07:55:18;11.60;99.90
11617;DHT22;5864;52.998;9.068;2023-04-29T07:58:04;11.40;99.90
11617;DHT22;5864;52.998;9.068;2023-04-29T08:00:49;11.60;99.90
11617;DHT22;5864;52.998;9.068;2023-04-29T08:03:36;11.90;99.90
11617;DHT22;5864;52.998;9.068;2023-04-29T08:06:22;12.10;99.90
11617;DHT22;5864;52.998;9.068;2023-04-29T08:09:07;12.50;99.90
11617;DHT22;5864;52.998;9.068;2023-04-29T08:11:53;12.80;99.90
11617;DHT22;5864;52.998;9.068;2023-04-29T08:14:40;13.10;99.90
11617;DHT22;5864;52.998;9.068;2023-04-29T08:17:25;13.40;99.90
11617;DHT22;5864;52.998;9.068;2023-04-29T08:20:12;13.80;99.90
11617;DHT22;5864;52.998;9.068;2023-04-29T08:22:58;13.70;99.90
11617;DHT22;5864;52.998;9.068;2023-04-29T08:25:43;13.90;99.90
11617;DHT22;5864;52.998;9.068;2023-04-29T08:28:29;14.20;99.90
11617;DHT22;5864;52.998;9.068;2023-04-29T08:31:16;14.20;97.90
11617;DHT22;5864;52.998;9.068;2023-04-29T08:34:02;14.20;99.90
11617;DHT22;5864;52.998;9.068;2023-04-29T08:36:49;14.30;99.00
11617;DHT22;5864;52.998;9.068;2023-04-29T08:39:34;14.50;99.90
11617;DHT22;5864;52.998;9.068;2023-04-29T08:42:33;15.00;94.70
11617;DHT22;5864;52.998;9.068;2023-04-29T08:45:19;14.60;79.60
11617;DHT22;5864;52.998;9.068;2023-04-29T08:48:08;14.90;92.30
11617;DHT22;5864;52.998;9.068;2023-04-29T08:53:42;15.70;78.80
11617;DHT22;5864;52.998;9.068;2023-04-29T08:56:29;16.10;84.40
11617;DHT22;5864;52.998;9.068;2023-04-29T08:59:16;16.50;74.60
11617;DHT22;5864;52.998;9.068;2023-04-29T09:02:02;16.60;69.30
11617;DHT22;5864;52.998;9.068;2023-04-29T09:04:54;16.60;62.50
11617;DHT22;5864;52.998;9.068;2023-04-29T09:07:43;16.10;66.90
11617;DHT22;5864;52.998;9.068;2023-04-29T09:10:30;16.20;66.40
11617;DHT22;5864;52.998;9.068;2023-04-29T09:13:23;16.20;59.70
11617;DHT22;5864;52.998;9.068;2023-04-29T09:16:10;16.10;61.20
11617;DHT22;5864;52.998;9.068;2023-04-29T09:18:56;15.60;64.70
11617;DHT22;5864;52.998;9.068;2023-04-29T09:21:53;15.50;64.10
11617;DHT22;5864;52.998;9.068;2023-04-29T09:24:38;15.70;75.70
11617;DHT22;5864;52.998;9.068;2023-04-29T09:27:28;16.50;71.80
11617;DHT22;5864;52.998;9.068;2023-04-29T09:30:14;17.10;61.10
11617;DHT22;5864;52.998;9.068;2023-04-29T09:33:04;17.40;52.40
11617;DHT22;5864;52.998;9.068;2023-04-29T09:35:50;17.40;45.90
11617;DHT22;5864;52.998;9.068;2023-04-29T09:38:36;17.10;43.50
11617;DHT22;5864;52.998;9.068;2023-04-29T09:41:58;17.70;48.00
11617;DHT22;5864;52.998;9.068;2023-04-29T09:44:46;18.20;39.70
11617;DHT22;5864;52.998;9.068;2023-04-29T10:49:12;18.70;13.80
11617;DHT22;5864;52.998;9.068;2023-04-29T10:52:03;18.60;18.50
11617;DHT22;5864;52.998;9.068;2023-04-29T10:55:01;18.10;17.20
11617;DHT22;5864;52.998;9.068;2023-04-29T10:57:47;18.80;21.40
11617;DHT22;5864;52.998;9.068;2023-04-29T11:00:33;19.20;18.80
11617;DHT22;5864;52.998;9.068;2023-04-29T11:03:49;19.20;19.60
11617;DHT22;5864;52.998;9.068;2023-04-29T11:06:39;19.20;22.40
11617;DHT22;5864;52.998;9.068;2023-04-29T11:09:29;19.50;14.70
11617;DHT22;5864;52.998;9.068;2023-04-29T11:12:19;19.30;16.60
11617;DHT22;5864;52.998;9.068;2023-04-29T11:15:07;18.40;16.90
11617;DHT22;5864;52.998;9.068;2023-04-29T11:17:57;17.80;18.70
11617;DHT22;5864;52.998;9.068;2023-04-29T11:21:13;17.50;18.00
11617;DHT22;5864;52.998;9.068;2023-04-29T11:23:59;17.20;19.10
11617;DHT22;5864;52.998;9.068;2023-04-29T11:26:46;16.90;23.00
11617;DHT22;5864;52.998;9.068;2023-04-29T11:29:33;17.00;20.60
11617;DHT22;5864;52.998;9.068;2023-04-29T11:32:19;17.10;24.20
11617;DHT22;5864;52.998;9.068;2023-04-29T11:35:09;17.00;24.00
11617;DHT22;5864;52.998;9.068;2023-04-29T11:37:59;17.10;23.70
11617;DHT22;5864;52.998;9.068;2023-04-29T11:40:48;16.90;26.80
11617;DHT22;5864;52.998;9.068;2023-04-29T11:43:35;17.00;24.20
11617;DHT22;5864;52.998;9.068;2023-04-29T11:46:22;17.00;25.70
11617;DHT22;5864;52.998;9.068;2023-04-29T11:49:08;16.60;22.10
11617;DHT22;5864;52.998;9.068;2023-04-29T11:51:54;16.40;25.70
11617;DHT22;5864;52.998;9.068;2023-04-29T11:54:40;16.60;23.10
11617;DHT22;5864;52.998;9.068;2023-04-29T11:57:25;16.50;22.70
11617;DHT22;5864;52.998;9.068;2023-04-29T12:00:13;16.30;22.60
11617;DHT22;5864;52.998;9.068;2023-04-29T12:02:59;16.10;23.30
11617;DHT22;5864;52.998;9.068;2023-04-29T12:05:46;16.30;23.30
11617;DHT22;5864;52.998;9.068;2023-04-29T12:08:47;19.00;26.80
11617;DHT22;5864;52.998;9.068;2023-04-29T12:11:44;17.90;24.10
11617;DHT22;5864;52.998;9.068;2023-04-29T12:14:31;18.60;13.90
11617;DHT22;5864;52.998;9.068;2023-04-29T12:17:18;18.50;13.10
11617;DHT22;5864;52.998;9.068;2023-04-29T12:20:06;18.80;12.60
11617;DHT22;5864;52.998;9.068;2023-04-29T12:22:52;19.10;13.00
11617;DHT22;5864;52.998;9.068;2023-04-29T12:25:38;19.10;11.00
11617;DHT22;5864;52.998;9.068;2023-04-29T12:28:25;19.20;10.10
11617;DHT22;5864;52.998;9.068;2023-04-29T12:34:02;20.00;8.60
11617;DHT22;5864;52.998;9.068;2023-04-29T12:36:48;20.10;4.90
11617;DHT22;5864;52.998;9.068;2023-04-29T12:39:35;20.00;5.50
11617;DHT22;5864;52.998;9.068;2023-04-29T12:42:20;19.90;2.70
11617;DHT22;5864;52.998;9.068;2023-04-29T12:45:06;19.80;4.50
11617;DHT22;5864;52.998;9.068;2023-04-29T12:47:52;20.10;3.30
11617;DHT22;5864;52.998;9.068;2023-04-29T12:50:39;20.30;2.40
11617;DHT22;5864;52.998;9.068;2023-04-29T12:53:25;20.30;2.00
11617;DHT22;5864;52.998;9.068;2023-04-29T12:56:11;19.90;1.00
11617;DHT22;5864;52.998;9.068;2023-04-29T12:59:02;19.70;1.00
11617;DHT22;5864;52.998;9.068;2023-04-29T13:01:48;19.70;1.00
11617;DHT22;5864;52.998;9.068;2023-04-29T13:04:34;19.40;1.00
11617;DHT22;5864;52.998;9.068;2023-04-29T13:07:21;19.50;1.00
11617;DHT22;5864;52.998;9.068;2023-04-29T13:10:08;19.40;1.00
11617;DHT22;5864;52.998;9.068;2023-04-29T13:12:55;19.00;1.00
11617;DHT22;5864;52.998;9.068;2023-04-29T13:15:42;18.90;1.00
11617;DHT22;5864;52.998;9.068;2023-04-29T13:18:27;19.30;1.70
11617;DHT22;5864;52.998;9.068;2023-04-29T13:21:14;19.20;1.00
11617;DHT22;5864;52.998;9.068;2023-04-29T13:24:00;19.20;1.00
11617;DHT22;5864;52.998;9.068;2023-04-29T13:26:46;19.30;1.00
11617;DHT22;5864;52.998;9.068;2023-04-29T13:29:32;19.40;1.00
11617;DHT22;5864;52.998;9.068;2023-04-29T13:32:19;19.30;1.00
11617;DHT22;5864;52.998;9.068;2023-04-29T13:35:07;19.40;1.00
11617;DHT22;5864;52.998;9.068;2023-04-29T13:37:52;19.00;1.60
11617;DHT22;5864;52.998;9.068;2023-04-29T13:40:39;19.40;1.90
11617;DHT22;5864;52.998;9.068;2023-04-29T13:43:25;19.60;1.00
11617;DHT22;5864;52.998;9.068;2023-04-29T13:46:11;19.70;1.00
11617;DHT22;5864;52.998;9.068;2023-04-29T13:48:57;18.80;1.00
11617;DHT22;5864;52.998;9.068;2023-04-29T13:51:42;18.80;1.00
11617;DHT22;5864;52.998;9.068;2023-04-29T13:54:27;19.00;1.10
11617;DHT22;5864;52.998;9.068;2023-04-29T13:57:14;19.20;1.00
11617;DHT22;5864;52.998;9.068;2023-04-29T14:00:00;18.80;1.00
11617;DHT22;5864;52.998;9.068;2023-04-29T14:02:46;19.00;1.00
11617;DHT22;5864;52.998;9.068;2023-04-29T14:05:31;19.00;1.00
11617;DHT22;5864;52.998;9.068;2023-04-29T14:08:17;18.80;1.00
11617;DHT22;5864;52.998;9.068;2023-04-29T14:11:03;19.00;1.00
11617;DHT22;5864;52.998;9.068;2023-04-29T14:13:50;19.00;1.00
11617;DHT22;5864;52.998;9.068;2023-04-29T14:16:36;19.10;1.00
11617;DHT22;5864;52.998;9.068;2023-04-29T14:19:21;18.60;1.00
11617;DHT22;5864;52.998;9.068;2023-04-29T14:22:07;18.00;1.00
11617;DHT22;5864;52.998;9.068;2023-04-29T14:24:53;18.20;1.00
11617;DHT22;5864;52.998;9.068;2023-04-29T14:27:39;17.90;1.00
11617;DHT22;5864;52.998;9.068;2023-04-29T14:30:26;17.50;1.00
11617;DHT22;5864;52.998;9.068;2023-04-29T14:33:11;17.90;1.00
11617;DHT22;5864;52.998;9.068;2023-04-29T14:35:57;17.70;1.00
11617;DHT22;5864;52.998;9.068;2023-04-29T14:38:44;17.30;1.00
11617;DHT22;5864;52.998;9.068;2023-04-29T14:41:29;17.20;1.00
11617;DHT22;5864;52.998;9.068;2023-04-29T14:44:15;17.30;1.00
11617;DHT22;5864;52.998;9.068;2023-04-29T14:47:02;17.20;1.00
11617;DHT22;5864;52.998;9.068;2023-04-29T14:49:47;17.30;1.00
11617;DHT22;5864;52.998;9.068;2023-04-29T14:52:33;17.00;1.00
11617;DHT22;5864;52.998;9.068;2023-04-29T14:55:19;17.20;1.00
11617;DHT22;5864;52.998;9.068;2023-04-29T14:58:05;17.40;1.00
11617;DHT22;5864;52.998;9.068;2023-04-29T15:00:52;17.20;1.00
11617;DHT22;5864;52.998;9.068;2023-04-29T15:03:39;17.20;1.00
11617;DHT22;5864;52.998;9.068;2023-04-29T15:06:25;17.00;1.00
11617;DHT22;5864;52.998;9.068;2023-04-29T15:09:12;17.10;1.00
11617;DHT22;5864;52.998;9.068;2023-04-29T15:11:57;17.20;1.00
11617;DHT22;5864;52.998;9.068;2023-04-29T15:14:43;16.80;1.00
11617;DHT22;5864;52.998;9.068;2023-04-29T15:17:28;16.70;1.00
11617;DHT22;5864;52.998;9.068;2023-04-29T15:20:16;16.80;1.00
11617;DHT22;5864;52.998;9.068;2023-04-29T15:23:02;16.90;1.00
11617;DHT22;5864;52.998;9.068;2023-04-29T15:25:48;16.60;1.00
11617;DHT22;5864;52.998;9.068;2023-04-29T15:28:34;16.70;1.00
11617;DHT22;5864;52.998;9.068;2023-04-29T15:31:19;16.70;1.00
11617;DHT22;5864;52.998;9.068;2023-04-29T15:34:05;16.60;1.00
11617;DHT22;5864;52.998;9.068;2023-04-29T15:36:52;16.50;1.00
11617;DHT22;5864;52.998;9.068;2023-04-29T15:39:39;16.30;1.40
11617;DHT22;5864;52.998;9.068;2023-04-29T15:42:24;16.20;2.20
11617;DHT22;5864;52.998;9.068;2023-04-29T15:45:11;16.20;4.50
11617;DHT22;5864;52.998;9.068;2023-04-29T15:47:56;15.90;6.00
11617;DHT22;5864;52.998;9.068;2023-04-29T15:50:43;16.20;8.30
11617;DHT22;5864;52.998;9.068;2023-04-29T15:53:29;16.20;9.10
11617;DHT22;5864;52.998;9.068;2023-04-29T15:56:15;16.20;10.60
11617;DHT22;5864;52.998;9.068;2023-04-29T15:59:01;16.00;15.00
11617;DHT22;5864;52.998;9.068;2023-04-29T16:01:46;15.80;16.90
11617;DHT22;5864;52.998;9.068;2023-04-29T16:04:32;16.00;22.30
11617;DHT22;5864;52.998;9.068;2023-04-29T16:07:18;15.80;21.00
11617;DHT22;5864;52.998;9.068;2023-04-29T16:10:06;15.50;26.40
11617;DHT22;5864;52.998;9.068;2023-04-29T16:12:51;15.40;23.80
11617;DHT22;5864;52.998;9.068;2023-04-29T16:15:37;15.30;26.40
11617;DHT22;5864;52.998;9.068;2023-04-29T16:18:22;15.50;24.20
11617;DHT22;5864;52.998;9.068;2023-04-29T16:21:08;15.10;25.30
11617;DHT22;5864;52.998;9.068;2023-04-29T16:23:53;15.20;30.20
11617;DHT22;5864;52.998;9.068;2023-04-29T16:26:40;14.90;33.90
11617;DHT22;5864;52.998;9.068;2023-04-29T16:29:26;15.00;30.30
11617;DHT22;5864;52.998;9.068;2023-04-29T16:32:12;14.50;37.30
11617;DHT22;5864;52.998;9.068;2023-04-29T16:34:58;14.40;40.30
11617;DHT22;5864;52.998;9.068;2023-04-29T16:37:43;14.30;40.10
11617;DHT22;5864;52.998;9.068;2023-04-29T16:40:30;14.00;45.90
11617;DHT22;5864;52.998;9.068;2023-04-29T16:43:16;14.10;47.10
11617;DHT22;5864;52.998;9.068;2023-04-29T16:46:02;13.70;51.90
11617;DHT22;5864;52.998;9.068;2023-04-29T16:48:48;13.80;56.10
11617;DHT22;5864;52.998;9.068;2023-04-29T16:51:34;13.90;54.70
11617;DHT22;5864;52.998;9.068;2023-04-29T16:54:20;13.90;52.40
11617;DHT22;5864;52.998;9.068;2023-04-29T16:57:05;13.80;52.20
11617;DHT22;5864;52.998;9.068;2023-04-29T16:59:53;13.80;51.60
11617;DHT22;5864;52.998;9.068;2023-04-29T17:02:38;13.60;55.40
11617;DHT22;5864;52.998;9.068;2023-04-29T17:05:25;13.70;52.50
11617;DHT22;5864;52.998;9.068;2023-04-29T17:08:11;13.10;51.90
11617;DHT22;5864;52.998;9.068;2023-04-29T17:10:58;13.50;50.90
11617;DHT22;5864;52.998;9.068;2023-04-29T17:13:43;13.40;52.60
11617;DHT22;5864;52.998;9.068;2023-04-29T17:16:30;13.40;54.60
11617;DHT22;5864;52.998;9.068;2023-04-29T17:19:16;13.30;56.40
11617;DHT22;5864;52.998;9.068;2023-04-29T17:22:01;13.30;55.30
11617;DHT22;5864;52.998;9.068;2023-04-29T17:24:47;13.40;57.10
11617;DHT22;5864;52.998;9.068;2023-04-29T17:27:34;13.20;57.20
11617;DHT22;5864;52.998;9.068;2023-04-29T17:30:20;13.30;60.10
11617;DHT22;5864;52.998;9.068;2023-04-29T17:33:07;13.30;60.20
11617;DHT22;5864;52.998;9.068;2023-04-29T17:35:52;13.10;64.60
11617;DHT22;5864;52.998;9.068;2023-04-29T17:38:38;13.10;68.80
11617;DHT22;5864;52.998;9.068;2023-04-29T17:41:24;13.20;71.50
11617;DHT22;5864;52.998;9.068;2023-04-29T17:44:09;12.80;73.10
11617;DHT22;5864;52.998;9.068;2023-04-29T17:46:55;12.70;75.00
11617;DHT22;5864;52.998;9.068;2023-04-29T17:49:42;12.60;82.30
11617;DHT22;5864;52.998;9.068;2023-04-29T17:52:27;12.60;83.40
11617;DHT22;5864;52.998;9.068;2023-04-29T17:55:13;12.60;83.40
11617;DHT22;5864;52.998;9.068;2023-04-29T17:57:58;12.60;84.60
11617;DHT22;5864;52.998;9.068;2023-04-29T18:00:45;12.80;81.00
11617;DHT22;5864;52.998;9.068;2023-04-29T18:03:32;12.80;76.90
11617;DHT22;5864;52.998;9.068;2023-04-29T18:06:19;12.80;78.50
11617;DHT22;5864;52.998;9.068;2023-04-29T18:09:06;12.70;77.60
11617;DHT22;5864;52.998;9.068;2023-04-29T18:11:57;12.60;80.20
11617;DHT22;5864;52.998;9.068;2023-04-29T18:14:43;12.60;76.90
11617;DHT22;5864;52.998;9.068;2023-04-29T18:17:30;12.50;73.40
11617;DHT22;5864;52.998;9.068;2023-04-29T18:20:16;12.30;79.80
11617;DHT22;5864;52.998;9.068;2023-04-29T18:23:03;12.10;81.20
11617;DHT22;5864;52.998;9.068;2023-04-29T18:25:49;12.10;82.20
11617;DHT22;5864;52.998;9.068;2023-04-29T18:28:35;12.10;83.20
11617;DHT22;5864;52.998;9.068;2023-04-29T18:31:20;12.10;78.70
11617;DHT22;5864;52.998;9.068;2023-04-29T18:34:09;12.00;81.70
11617;DHT22;5864;52.998;9.068;2023-04-29T18:36:54;11.80;85.10
11617;DHT22;5864;52.998;9.068;2023-04-29T18:39:42;11.80;87.40
11617;DHT22;5864;52.998;9.068;2023-04-29T18:42:27;11.60;91.00
11617;DHT22;5864;52.998;9.068;2023-04-29T18:45:13;11.50;90.30
11617;DHT22;5864;52.998;9.068;2023-04-29T18:47:58;11.50;88.40
11617;DHT22;5864;52.998;9.068;2023-04-29T18:50:50;11.30;89.10
11617;DHT22;5864;52.998;9.068;2023-04-29T18:53:35;11.20;92.50
11617;DHT22;5864;52.998;9.068;2023-04-29T18:56:23;11.20;93.20
11617;DHT22;5864;52.998;9.068;2023-04-29T18:59:09;11.20;93.20
11617;DHT22;5864;52.998;9.068;2023-04-29T19:01:56;13.70;95.80
11617;DHT22;5864;52.998;9.068;2023-04-29T19:04:41;11.30;94.30